createdAt,value
2022-10-06T00:00:38.653Z,28.3
2022-10-06T00:01:40.414Z,28.4
2022-10-06T00:02:42.426Z,28.4
2022-10-06T00:03:44.500Z,28.4
2022-10-06T00:04:46.046Z,28.3
2022-10-06T00:05:47.676Z,28.4
2022-10-06T00:06:49.224Z,28.4
2022-10-06T00:07:50.771Z,28.4
2022-10-06T00:08:52.315Z,28.4
2022-10-06T00:09:53.901Z,28.4
2022-10-06T00:10:55.465Z,28.4
2022-10-06T00:11:57.000Z,28.4
2022-10-06T00:12:58.543Z,28.4
2022-10-06T00:14:00.151Z,28.4
2022-10-06T00:15:01.771Z,28.4
2022-10-06T00:16:03.450Z,28.4
2022-10-06T00:17:05.125Z,28.4
2022-10-06T00:18:06.718Z,28.4
2022-10-06T00:19:08.304Z,28.4
2022-10-06T00:20:09.852Z,28.4
2022-10-06T00:21:11.398Z,28.4
2022-10-06T00:22:12.978Z,28.4
2022-10-06T00:23:14.535Z,28.4
2022-10-06T00:24:16.093Z,28.4
2022-10-06T00:25:17.642Z,28.4
2022-10-06T00:26:19.186Z,28.5
2022-10-06T00:27:20.784Z,28.4
2022-10-06T00:28:22.536Z,28.4
2022-10-06T00:29:24.414Z,28.4
2022-10-06T00:30:26.040Z,28.4
2022-10-06T00:31:27.743Z,28.4
2022-10-06T00:32:29.492Z,28.4
2022-10-06T00:33:31.047Z,28.4
2022-10-06T00:34:32.604Z,28.4
2022-10-06T00:35:34.149Z,28.5
2022-10-06T00:36:35.764Z,28.4
2022-10-06T00:37:37.298Z,28.4
2022-10-06T00:38:38.836Z,28.4
2022-10-06T00:39:40.375Z,28.4
2022-10-06T00:40:41.998Z,28.4
2022-10-06T00:41:43.538Z,28.4
2022-10-06T00:42:45.085Z,28.4
2022-10-06T00:43:46.630Z,28.4
2022-10-06T00:44:48.357Z,28.4
2022-10-06T00:45:50.217Z,28.4
2022-10-06T00:46:51.952Z,28.4
2022-10-06T00:47:53.510Z,28.4
2022-10-06T00:48:55.059Z,28.4
2022-10-06T00:49:56.630Z,28.5
2022-10-06T00:50:58.286Z,28.4
2022-10-06T00:51:59.795Z,28.4
2022-10-06T00:53:01.335Z,28.4
2022-10-06T00:54:02.876Z,28.4
2022-10-06T00:55:04.454Z,28.4
2022-10-06T00:56:06.076Z,28.4
2022-10-06T00:57:07.618Z,28.4
2022-10-06T00:58:09.166Z,28.4
2022-10-06T00:59:10.713Z,28.4
2022-10-06T01:00:12.300Z,28.4
2022-10-06T01:01:14.118Z,28.4
2022-10-06T01:02:16.169Z,28.4
2022-10-06T01:03:17.896Z,28.4
2022-10-06T01:04:19.441Z,28.4
2022-10-06T01:05:20.997Z,28.4
2022-10-06T01:06:22.532Z,28.4
2022-10-06T01:07:24.116Z,28.4
2022-10-06T01:08:26.645Z,28.4
2022-10-06T01:09:29.858Z,28.4
2022-10-06T01:10:31.406Z,28.4
2022-10-06T01:11:32.981Z,28.4
2022-10-06T01:12:34.587Z,28.4
2022-10-06T01:13:36.133Z,28.4
2022-10-06T01:14:37.717Z,28.4
2022-10-06T01:15:39.322Z,28.4
2022-10-06T01:16:41.168Z,28.4
2022-10-06T01:17:42.744Z,28.4
2022-10-06T01:18:44.305Z,28.4
2022-10-06T01:19:45.854Z,28.4
2022-10-06T01:20:47.391Z,28.4
2022-10-06T01:21:48.974Z,28.4
2022-10-06T01:22:50.509Z,28.4
2022-10-06T01:23:52.050Z,28.4
2022-10-06T01:24:53.634Z,28.4
2022-10-06T01:25:55.225Z,28.4
2022-10-06T01:26:56.837Z,28.4
2022-10-06T01:27:58.642Z,28.4
2022-10-06T01:29:00.396Z,28.4
2022-10-06T01:30:01.966Z,28.4
2022-10-06T01:31:03.800Z,28.4
2022-10-06T01:32:05.926Z,28.4
2022-10-06T01:33:07.468Z,28.4
2022-10-06T01:34:09.021Z,28.4
2022-10-06T01:35:10.599Z,28.4
2022-10-06T01:36:12.188Z,28.4
2022-10-06T01:37:13.845Z,28.4
2022-10-06T01:38:15.392Z,28.4
2022-10-06T01:39:16.998Z,28.4
2022-10-06T01:40:18.508Z,28.4
2022-10-06T01:41:20.118Z,28.4
2022-10-06T01:42:21.657Z,28.4
2022-10-06T01:43:23.200Z,28.4
2022-10-06T01:44:24.855Z,28.4
2022-10-06T01:45:26.405Z,28.4
2022-10-06T01:46:28.160Z,28.4
2022-10-06T01:47:29.923Z,28.4
2022-10-06T01:48:32.565Z,28.4
2022-10-06T01:49:34.719Z,28.4
2022-10-06T01:50:36.274Z,28.4
2022-10-06T01:51:37.844Z,28.4
2022-10-06T01:52:39.390Z,28.4
2022-10-06T01:53:40.947Z,28.4
2022-10-06T01:54:42.544Z,28.4
2022-10-06T01:55:44.104Z,28.4
2022-10-06T01:56:45.662Z,28.4
2022-10-06T01:57:47.233Z,28.4
2022-10-06T01:58:48.775Z,28.4
2022-10-06T01:59:55.174Z,28.4
2022-10-06T02:00:56.803Z,28.4
2022-10-06T02:01:58.589Z,28.4
2022-10-06T02:03:00.452Z,28.4
2022-10-06T02:04:02.272Z,28.4
2022-10-06T02:05:03.974Z,28.4
2022-10-06T02:06:05.839Z,28.4
2022-10-06T02:07:07.597Z,28.4
2022-10-06T02:08:09.153Z,28.4
2022-10-06T02:09:10.787Z,28.4
2022-10-06T02:10:12.338Z,28.4
2022-10-06T02:11:13.881Z,28.4
2022-10-06T02:12:15.456Z,28.4
2022-10-06T02:13:17.002Z,28.4
2022-10-06T02:14:18.611Z,28.4
2022-10-06T02:15:20.158Z,28.4
2022-10-06T02:16:21.785Z,28.4
2022-10-06T02:17:23.543Z,28.4
2022-10-06T02:18:26.211Z,28.4
2022-10-06T02:19:29.284Z,28.4
2022-10-06T02:20:30.833Z,28.4
2022-10-06T02:21:32.462Z,28.4
2022-10-06T02:22:34.005Z,28.4
2022-10-06T02:23:35.559Z,28.4
2022-10-06T02:24:37.105Z,28.4
2022-10-06T02:25:38.711Z,28.4
2022-10-06T02:26:40.471Z,28.4
2022-10-06T02:27:42.033Z,28.4
2022-10-06T02:28:43.723Z,28.4
2022-10-06T02:29:45.555Z,28.4
2022-10-06T02:30:47.191Z,28.4
2022-10-06T02:31:51.616Z,28.4
2022-10-06T02:32:53.306Z,28.4
2022-10-06T02:33:54.928Z,28.4
2022-10-06T02:34:56.514Z,28.4
2022-10-06T02:35:58.051Z,28.4
2022-10-06T02:36:59.632Z,28.4
2022-10-06T02:38:01.316Z,28.4
2022-10-06T02:39:02.883Z,28.4
2022-10-06T02:40:04.516Z,28.4
2022-10-06T02:41:06.054Z,28.4
2022-10-06T02:42:07.626Z,28.4
2022-10-06T02:43:09.171Z,28.4
2022-10-06T02:44:10.719Z,28.4
2022-10-06T02:45:12.308Z,28.4
2022-10-06T02:46:14.043Z,28.4
2022-10-06T02:47:15.838Z,28.4
2022-10-06T02:48:17.486Z,28.5
2022-10-06T02:49:19.237Z,28.4
2022-10-06T02:50:20.787Z,28.4
2022-10-06T02:51:22.384Z,28.4
2022-10-06T02:52:23.930Z,28.4
2022-10-06T02:53:25.437Z,28.3
2022-10-06T02:54:27.064Z,28.3
2022-10-06T02:55:28.590Z,28.3
2022-10-06T02:56:30.160Z,28.3
2022-10-06T02:57:31.716Z,28.3
2022-10-06T02:58:33.325Z,28.3
2022-10-06T02:59:34.893Z,28.3
2022-10-06T03:00:36.432Z,28.3
2022-10-06T03:01:38.347Z,28.4
2022-10-06T03:02:40.632Z,28.4
2022-10-06T03:03:42.751Z,28.4
2022-10-06T03:04:44.451Z,28.3
2022-10-06T03:05:45.995Z,28.4
2022-10-06T03:06:47.568Z,28.4
2022-10-06T03:07:49.091Z,28.4
2022-10-06T03:08:50.645Z,28.4
2022-10-06T03:09:52.199Z,28.4
2022-10-06T03:10:53.741Z,28.4
2022-10-06T03:11:55.342Z,28.4
2022-10-06T03:12:56.890Z,28.4
2022-10-06T03:13:58.529Z,28.4
2022-10-06T03:15:00.067Z,28.4
2022-10-06T03:16:01.705Z,28.4
2022-10-06T03:17:03.514Z,28.4
2022-10-06T03:18:05.070Z,28.4
2022-10-06T03:19:06.680Z,28.4
2022-10-06T03:20:08.398Z,28.4
2022-10-06T03:21:09.950Z,28.4
2022-10-06T03:22:11.531Z,28.3
2022-10-06T03:23:14.036Z,28.4
2022-10-06T03:24:15.597Z,28.4
2022-10-06T03:25:17.185Z,28.4
2022-10-06T03:26:18.827Z,28.4
2022-10-06T03:27:20.378Z,28.4
2022-10-06T03:28:22.104Z,28.3
2022-10-06T03:29:23.929Z,28.4
2022-10-06T03:30:25.543Z,28.4
2022-10-06T03:31:27.353Z,28.4
2022-10-06T03:32:29.273Z,28.4
2022-10-06T03:33:30.818Z,28.4
2022-10-06T03:34:32.489Z,28.2
2022-10-06T03:35:34.601Z,28.4
2022-10-06T03:36:36.137Z,28.3
2022-10-06T03:37:37.677Z,28.3
2022-10-06T03:38:39.226Z,28.3
2022-10-06T03:39:40.856Z,28.3
2022-10-06T03:40:42.393Z,28.3
2022-10-06T03:41:43.936Z,28.4
2022-10-06T03:42:45.550Z,28.3
2022-10-06T03:43:47.099Z,28.3
2022-10-06T03:44:48.715Z,28.2
2022-10-06T03:45:50.273Z,28.3
2022-10-06T03:46:52.007Z,28.3
2022-10-06T03:47:53.695Z,28.3
2022-10-06T03:48:55.232Z,28.3
2022-10-06T03:49:56.868Z,28.3
2022-10-06T03:50:58.492Z,28.2
2022-10-06T03:52:00.037Z,28.4
2022-10-06T03:53:01.580Z,28.3
2022-10-06T03:54:03.123Z,28.3
2022-10-06T03:55:04.834Z,28.3
2022-10-06T03:56:06.382Z,28.1
2022-10-06T03:57:07.944Z,28.2
2022-10-06T03:58:09.454Z,28.2
2022-10-06T03:59:10.992Z,28.1
2022-10-06T04:00:12.594Z,28.1
2022-10-06T04:01:14.422Z,28.3
2022-10-06T04:02:16.541Z,28.3
2022-10-06T04:03:18.326Z,28.2
2022-10-06T04:04:19.862Z,28.2
2022-10-06T04:05:21.450Z,28.2
2022-10-06T04:06:23.080Z,28.2
2022-10-06T04:07:24.687Z,28.2
2022-10-06T04:08:27.257Z,28.2
2022-10-06T04:09:30.413Z,28.2
2022-10-06T04:10:31.991Z,28.2
2022-10-06T04:11:33.526Z,28.2
2022-10-06T04:12:35.108Z,28.2
2022-10-06T04:13:36.684Z,28.2
2022-10-06T04:14:38.231Z,28.1
2022-10-06T04:15:39.776Z,28.2
2022-10-06T04:16:41.591Z,28
2022-10-06T04:17:43.266Z,28.2
2022-10-06T04:18:44.847Z,28.3
2022-10-06T04:19:46.421Z,28.3
2022-10-06T04:20:48.049Z,28.4
2022-10-06T04:21:49.618Z,28.3
2022-10-06T04:22:51.225Z,28.2
2022-10-06T04:23:52.771Z,28.3
2022-10-06T04:24:54.305Z,28.3
2022-10-06T04:25:56.321Z,28.4
2022-10-06T04:26:57.831Z,28.4
2022-10-06T04:27:59.538Z,28.4
2022-10-06T04:29:01.301Z,28.4
2022-10-06T04:30:02.870Z,28.4
2022-10-06T04:31:04.476Z,28.4
2022-10-06T04:32:06.064Z,28.5
2022-10-06T04:33:07.633Z,28.4
2022-10-06T04:34:09.178Z,28.3
2022-10-06T04:35:10.793Z,28.5
2022-10-06T04:36:12.406Z,28.4
2022-10-06T04:37:14.233Z,28.5
2022-10-06T04:38:15.773Z,28.4
2022-10-06T04:39:17.362Z,28.3
2022-10-06T04:40:18.927Z,28.3
2022-10-06T04:41:20.480Z,28.3
2022-10-06T04:42:22.112Z,28.4
2022-10-06T04:43:23.662Z,28.5
2022-10-06T04:44:25.207Z,28.4
2022-10-06T04:45:26.984Z,28.3
2022-10-06T04:46:45.699Z,28.2
2022-10-06T04:47:47.714Z,28.1
2022-10-06T04:48:49.258Z,28.1
2022-10-06T04:49:50.824Z,28
2022-10-06T04:50:52.364Z,28
2022-10-06T04:51:54.013Z,28
2022-10-06T04:52:55.885Z,27.9
2022-10-06T04:53:57.424Z,27.9
2022-10-06T04:54:59.044Z,27.9
2022-10-06T04:56:00.616Z,27.9
2022-10-06T04:57:02.231Z,27.9
2022-10-06T04:58:03.764Z,27.8
2022-10-06T04:59:05.314Z,27.9
2022-10-06T05:00:14.861Z,27.8
2022-10-06T05:01:17.017Z,27.9
2022-10-06T05:02:19.164Z,27.8
2022-10-06T05:03:21.184Z,27.8
2022-10-06T05:04:22.731Z,27.8
2022-10-06T05:05:24.301Z,27.8
2022-10-06T05:06:25.921Z,27.8
2022-10-06T05:07:27.502Z,27.7
2022-10-06T05:08:29.968Z,27.7
2022-10-06T05:09:32.422Z,27.7
2022-10-06T05:10:33.964Z,27.6
2022-10-06T05:11:35.515Z,27.6
2022-10-06T05:12:37.157Z,27.7
2022-10-06T05:13:38.762Z,27.7
2022-10-06T05:14:40.390Z,27.7
2022-10-06T05:15:41.935Z,27.8
2022-10-06T05:16:43.790Z,27.8
2022-10-06T05:17:45.730Z,27.6
2022-10-06T05:18:47.273Z,27.7
2022-10-06T05:19:48.826Z,27.6
2022-10-06T05:20:50.362Z,27.6
2022-10-06T05:21:51.899Z,27.5
2022-10-06T05:22:53.525Z,27.6
2022-10-06T05:23:55.190Z,27.6
2022-10-06T05:24:56.740Z,27.7
2022-10-06T05:25:58.289Z,27.5
2022-10-06T05:27:02.280Z,27.6
2022-10-06T05:28:04.007Z,27.7
2022-10-06T05:29:05.831Z,27.6
2022-10-06T05:30:07.583Z,27.6
2022-10-06T05:31:09.147Z,27.5
2022-10-06T05:32:10.737Z,27.6
2022-10-06T05:33:12.291Z,27.6
2022-10-06T05:34:13.867Z,27.6
2022-10-06T05:35:15.499Z,27.6
2022-10-06T05:36:17.058Z,27.6
2022-10-06T05:37:18.638Z,27.6
2022-10-06T05:38:20.255Z,27.5
2022-10-06T05:39:21.997Z,27.6
2022-10-06T05:40:23.541Z,27.5
2022-10-06T05:41:25.084Z,27.5
2022-10-06T05:42:30.047Z,27.5
2022-10-06T05:43:31.741Z,27.5
2022-10-06T05:44:33.378Z,27.4
2022-10-06T05:45:35.021Z,27.4
2022-10-06T05:46:36.666Z,27.5
2022-10-06T05:47:38.286Z,27.4
2022-10-06T05:48:39.920Z,27.5
2022-10-06T05:49:41.465Z,27.4
2022-10-06T05:50:43.046Z,27.3
2022-10-06T05:51:44.586Z,27.4
2022-10-06T05:52:46.193Z,27.2
2022-10-06T05:53:47.763Z,27.2
2022-10-06T05:54:49.410Z,27.2
2022-10-06T05:55:50.961Z,27.2
2022-10-06T05:56:52.511Z,27.1
2022-10-06T05:57:54.112Z,27.2
2022-10-06T05:58:55.662Z,27.1
2022-10-06T05:59:57.202Z,27.1
2022-10-06T06:00:58.744Z,27.1
2022-10-06T06:02:00.703Z,27.1
2022-10-06T06:03:03.144Z,27.1
2022-10-06T06:04:04.909Z,27
2022-10-06T06:05:06.455Z,26.9
2022-10-06T06:06:07.989Z,26.9
2022-10-06T06:07:09.530Z,26.9
2022-10-06T06:08:11.095Z,26.9
2022-10-06T06:09:12.712Z,26.9
2022-10-06T06:10:14.531Z,26.9
2022-10-06T06:11:16.078Z,26.9
2022-10-06T06:12:17.611Z,26.8
2022-10-06T06:13:19.178Z,26.8
2022-10-06T06:14:20.788Z,26.7
2022-10-06T06:15:22.322Z,26.6
2022-10-06T06:16:23.988Z,26.6
2022-10-06T06:17:25.734Z,26.6
2022-10-06T06:18:28.389Z,26.8
2022-10-06T06:19:31.376Z,26.8
2022-10-06T06:20:33.024Z,26.9
2022-10-06T06:21:34.661Z,26.9
2022-10-06T06:22:36.314Z,26.8
2022-10-06T06:23:37.841Z,26.7
2022-10-06T06:24:39.420Z,26.5
2022-10-06T06:25:41.083Z,26.4
2022-10-06T06:26:42.634Z,26.2
2022-10-06T06:27:44.181Z,26.5
2022-10-06T06:28:45.900Z,25.9
2022-10-06T06:29:47.886Z,26.3
2022-10-06T06:30:49.567Z,26.3
2022-10-06T06:31:51.415Z,26.3
2022-10-06T06:32:52.976Z,26.5
2022-10-06T06:33:54.549Z,26.5
2022-10-06T06:34:56.137Z,26.6
2022-10-06T06:35:57.730Z,26.8
2022-10-06T06:37:07.649Z,26.9
2022-10-06T06:38:16.908Z,26.9
2022-10-06T06:39:18.502Z,26.9
2022-10-06T06:40:20.080Z,26.8
2022-10-06T06:41:21.683Z,26.6
2022-10-06T06:42:23.276Z,26.6
2022-10-06T06:43:24.826Z,26.5
2022-10-06T06:44:26.387Z,26.5
2022-10-06T06:45:27.932Z,26.6
2022-10-06T06:46:29.672Z,26.4
2022-10-06T06:47:31.832Z,26.4
2022-10-06T06:48:34.118Z,26.4
2022-10-06T06:49:35.768Z,26.4
2022-10-06T06:50:37.321Z,26.2
2022-10-06T06:51:38.897Z,26.2
2022-10-06T06:52:40.439Z,26.1
2022-10-06T06:53:42.016Z,26.1
2022-10-06T06:54:43.597Z,26
2022-10-06T06:55:45.167Z,26.2
2022-10-06T06:56:46.812Z,26.3
2022-10-06T06:57:48.357Z,26.2
2022-10-06T06:58:49.899Z,26.4
2022-10-06T06:59:51.482Z,26.5
2022-10-06T07:00:53.141Z,26.4
2022-10-06T07:01:55.057Z,26.6
2022-10-06T07:02:56.787Z,26.7
2022-10-06T07:03:59.394Z,26.8
2022-10-06T07:05:01.121Z,26.9
2022-10-06T07:06:02.700Z,27.1
2022-10-06T07:07:04.274Z,27
2022-10-06T07:08:05.829Z,27.2
2022-10-06T07:09:07.447Z,27.2
2022-10-06T07:10:08.995Z,27.1
2022-10-06T07:11:10.569Z,27.1
2022-10-06T07:12:12.249Z,27
2022-10-06T07:13:13.793Z,26.9
2022-10-06T07:14:15.336Z,26.9
2022-10-06T07:15:16.890Z,26.8
2022-10-06T07:16:18.538Z,26.8
2022-10-06T07:17:20.362Z,26.7
2022-10-06T07:18:21.942Z,26.3
2022-10-06T07:19:25.298Z,26.5
2022-10-06T07:20:26.838Z,26.6
2022-10-06T07:21:28.387Z,26.8
2022-10-06T07:22:29.995Z,26.8
2022-10-06T07:23:31.544Z,26.8
2022-10-06T07:24:33.106Z,26.8
2022-10-06T07:25:34.710Z,26.8
2022-10-06T07:26:36.322Z,26.8
2022-10-06T07:27:37.922Z,26.8
2022-10-06T07:28:39.580Z,26.8
2022-10-06T07:29:41.527Z,26.7
2022-10-06T07:30:43.109Z,26.6
2022-10-06T07:31:44.759Z,26.4
2022-10-06T07:32:46.523Z,26.5
2022-10-06T07:33:48.071Z,26.4
2022-10-06T07:34:50.003Z,26.4
2022-10-06T07:35:52.789Z,26.4
2022-10-06T07:36:54.401Z,26.6
2022-10-06T07:37:56.018Z,26.7
2022-10-06T07:38:57.610Z,26.8
2022-10-06T07:39:59.152Z,27
2022-10-06T07:41:20.202Z,26.9
2022-10-06T07:42:22.402Z,27
2022-10-06T07:43:24.230Z,26.9
2022-10-06T07:44:25.776Z,26.8
2022-10-06T07:45:27.325Z,27
2022-10-06T07:46:29.154Z,26.9
2022-10-06T07:47:31.140Z,26.6
2022-10-06T07:48:32.682Z,26.4
2022-10-06T07:49:34.313Z,26.5
2022-10-06T07:50:35.906Z,26.5
2022-10-06T07:51:37.498Z,26.5
2022-10-06T07:52:39.205Z,26.5
2022-10-06T07:53:41.226Z,26.4
2022-10-06T07:54:42.777Z,26.5
2022-10-06T07:55:44.348Z,26.4
2022-10-06T07:56:45.938Z,26.4
2022-10-06T07:57:47.591Z,26.4
2022-10-06T07:58:49.228Z,26.3
2022-10-06T07:59:50.826Z,26.3
2022-10-06T08:00:52.382Z,26.3
2022-10-06T08:01:53.996Z,26.3
2022-10-06T08:02:55.795Z,26.2
2022-10-06T08:03:57.723Z,26.1
2022-10-06T08:04:59.340Z,26.2
2022-10-06T08:06:00.885Z,26.2
2022-10-06T08:07:02.448Z,26.1
2022-10-06T08:08:03.992Z,26.1
2022-10-06T08:09:05.569Z,26
2022-10-06T08:10:07.151Z,25.9
2022-10-06T08:11:08.774Z,25.9
2022-10-06T08:12:10.533Z,26
2022-10-06T08:13:12.226Z,25.9
2022-10-06T08:14:13.894Z,25.9
2022-10-06T08:15:15.449Z,25.8
2022-10-06T08:16:17.280Z,25.9
2022-10-06T08:17:19.435Z,25.8
2022-10-06T08:18:46.771Z,25.8
2022-10-06T08:19:48.975Z,25.8
2022-10-06T08:20:50.952Z,25.7
2022-10-06T08:21:52.687Z,25.7
2022-10-06T08:22:54.279Z,25.7
2022-10-06T08:23:55.863Z,25.7
2022-10-06T08:25:08.848Z,25.7
2022-10-06T08:26:11.902Z,25.7
2022-10-06T08:27:13.469Z,25.6
2022-10-06T08:28:15.455Z,25.6
2022-10-06T08:29:17.469Z,25.6
2022-10-06T08:30:19.148Z,25.5
2022-10-06T08:31:20.971Z,25.5
2022-10-06T08:32:23.163Z,25.7
2022-10-06T08:33:24.717Z,25.9
2022-10-06T08:34:26.341Z,25.9
2022-10-06T08:35:27.888Z,25.8
2022-10-06T08:36:32.708Z,25.7
2022-10-06T08:37:34.448Z,25.9
2022-10-06T08:38:36.063Z,26.4
2022-10-06T08:39:37.612Z,26
2022-10-06T08:40:39.248Z,26.1
2022-10-06T08:41:40.818Z,26.6
2022-10-06T08:42:42.683Z,26.5
2022-10-06T08:43:44.252Z,26.2
2022-10-06T08:44:46.002Z,26.1
2022-10-06T08:45:47.785Z,26.1
2022-10-06T08:46:49.479Z,26
2022-10-06T08:47:51.137Z,25.9
2022-10-06T08:48:52.724Z,26.1
2022-10-06T08:49:54.692Z,26.1
2022-10-06T08:50:57.911Z,26.2
2022-10-06T08:51:59.444Z,26.2
2022-10-06T08:53:00.986Z,26.1
2022-10-06T08:54:02.535Z,26.1
2022-10-06T08:55:04.088Z,26.1
2022-10-06T08:56:05.739Z,26.1
2022-10-06T08:57:07.294Z,26.1
2022-10-06T08:59:10.548Z,26
2022-10-06T09:00:12.321Z,26
2022-10-06T09:01:14.083Z,26.1
2022-10-06T09:02:16.219Z,26
2022-10-06T09:03:17.909Z,25.8
2022-10-06T09:04:19.454Z,25.7
2022-10-06T09:05:21.019Z,25.8
2022-10-06T09:06:22.612Z,25.7
2022-10-06T09:07:24.169Z,25.9
2022-10-06T09:08:25.779Z,25.9
2022-10-06T09:09:30.011Z,25.9
2022-10-06T09:10:31.581Z,26
2022-10-06T09:11:33.131Z,26
2022-10-06T09:12:34.668Z,26.3
2022-10-06T09:13:36.272Z,26.3
2022-10-06T09:14:37.987Z,25.9
2022-10-06T09:15:39.882Z,26.1
2022-10-06T09:16:41.675Z,26.3
2022-10-06T09:17:43.260Z,26
2022-10-06T09:19:08.923Z,26
2022-10-06T09:20:11.334Z,26.1
2022-10-06T09:21:12.874Z,26.1
2022-10-06T09:22:14.474Z,26
2022-10-06T09:23:16.240Z,25.9
2022-10-06T09:24:18.130Z,26
2022-10-06T09:25:19.740Z,26
2022-10-06T09:26:21.280Z,25.9
2022-10-06T09:27:22.834Z,25.8
2022-10-06T09:28:24.530Z,25.9
2022-10-06T09:29:26.229Z,25.9
2022-10-06T09:30:27.804Z,26
2022-10-06T09:31:29.670Z,26
2022-10-06T09:32:34.447Z,26
2022-10-06T09:33:36.103Z,26
2022-10-06T09:34:37.700Z,25.9
2022-10-06T09:35:39.264Z,25.9
2022-10-06T09:36:40.812Z,25.9
2022-10-06T09:37:42.368Z,25.7
2022-10-06T09:38:44.048Z,25.9
2022-10-06T09:39:45.588Z,25.8
2022-10-06T09:40:47.123Z,25.8
2022-10-06T09:41:48.738Z,25.9
2022-10-06T09:42:50.291Z,25.9
2022-10-06T09:43:51.836Z,25.8
2022-10-06T09:44:53.938Z,25.7
2022-10-06T09:45:57.394Z,25.7
2022-10-06T09:47:00.392Z,25.7
2022-10-06T09:48:01.959Z,25.6
2022-10-06T09:49:03.569Z,25.6
2022-10-06T09:50:05.177Z,26
2022-10-06T09:51:06.712Z,26.1
2022-10-06T09:52:08.252Z,26.2
2022-10-06T09:53:09.862Z,26.1
2022-10-06T09:54:11.406Z,25.8
2022-10-06T09:55:12.952Z,26.1
2022-10-06T09:56:14.588Z,26.3
2022-10-06T09:57:16.151Z,26.3
2022-10-06T09:58:17.823Z,26.3
2022-10-06T09:59:19.386Z,26.5
2022-10-06T10:00:20.949Z,26.4
2022-10-06T10:01:22.846Z,26.4
2022-10-06T10:02:24.874Z,26.3
2022-10-06T10:03:26.481Z,26.2
2022-10-06T10:04:28.134Z,26.3
2022-10-06T10:05:29.740Z,26.3
2022-10-06T10:06:31.440Z,26.4
2022-10-06T10:07:33.024Z,26.4
2022-10-06T10:09:37.367Z,26.2
2022-10-06T10:10:38.920Z,26.4
2022-10-06T10:11:40.479Z,26.4
2022-10-06T10:12:42.093Z,26.4
2022-10-06T10:13:43.681Z,26.5
2022-10-06T10:14:45.313Z,26.5
2022-10-06T10:15:46.943Z,26.4
2022-10-06T10:16:53.430Z,26.5
2022-10-06T10:17:55.277Z,26.5
2022-10-06T10:18:56.835Z,26.4
2022-10-06T10:19:59.000Z,26.4
2022-10-06T10:21:04.532Z,26.2
2022-10-06T10:22:06.115Z,26.2
2022-10-06T10:23:07.671Z,26.1
2022-10-06T10:24:09.226Z,26.2
2022-10-06T10:25:10.786Z,26.2
2022-10-06T10:26:12.400Z,26.2
2022-10-06T10:27:13.943Z,26.2
2022-10-06T10:28:15.592Z,26.1
2022-10-06T10:29:17.398Z,26.1
2022-10-06T10:30:18.955Z,26
2022-10-06T10:31:20.722Z,26.1
2022-10-06T10:32:22.651Z,25.8
2022-10-06T10:33:24.405Z,25.9
2022-10-06T10:34:26.007Z,26
2022-10-06T10:35:27.618Z,25.9
2022-10-06T10:36:29.209Z,25.9
2022-10-06T10:37:30.841Z,25.9
2022-10-06T10:38:32.432Z,26
2022-10-06T10:39:33.989Z,25.9
2022-10-06T10:40:35.572Z,26
2022-10-06T10:41:37.259Z,26
2022-10-06T10:42:38.837Z,25.9
2022-10-06T10:43:40.408Z,25.9
2022-10-06T10:44:41.950Z,25.7
2022-10-06T10:45:43.598Z,25.9
2022-10-06T10:46:45.247Z,25.7
2022-10-06T10:47:46.965Z,25.7
2022-10-06T10:48:48.603Z,25.8
2022-10-06T10:49:50.207Z,25.8
2022-10-06T10:50:51.745Z,25.5
2022-10-06T10:51:53.284Z,25.5
2022-10-06T10:52:54.864Z,25.5
2022-10-06T10:53:56.432Z,25.5
2022-10-06T10:54:58.804Z,25.5
2022-10-06T10:56:01.957Z,25.4
2022-10-06T10:57:03.575Z,25.5
2022-10-06T10:58:05.121Z,25.6
2022-10-06T10:59:06.765Z,25.4
2022-10-06T11:00:08.308Z,25.1
2022-10-06T11:01:10.012Z,24.9
2022-10-06T11:02:11.995Z,25.4
2022-10-06T11:03:13.867Z,25.4
2022-10-06T11:04:15.557Z,25.2
2022-10-06T11:05:17.126Z,25.1
2022-10-06T11:06:18.690Z,25
2022-10-06T11:07:20.243Z,25.1
2022-10-06T11:08:21.835Z,25.3
2022-10-06T11:09:23.402Z,25.3
2022-10-06T11:10:25.009Z,25.3
2022-10-06T11:11:26.757Z,25.2
2022-10-06T11:12:28.482Z,25.2
2022-10-06T11:13:30.113Z,25
2022-10-06T11:14:31.659Z,25.1
2022-10-06T11:15:33.217Z,25
2022-10-06T11:16:34.878Z,25.1
2022-10-06T11:17:36.645Z,25.1
2022-10-06T11:18:38.291Z,24.9
2022-10-06T11:19:39.907Z,24.9
2022-10-06T11:20:41.652Z,24.8
2022-10-06T11:21:43.319Z,24.9
2022-10-06T11:22:44.883Z,25
2022-10-06T11:23:46.487Z,25.1
2022-10-06T11:24:48.138Z,25.2
2022-10-06T11:25:49.922Z,25.2
2022-10-06T11:26:51.495Z,25.4
2022-10-06T11:27:53.033Z,25.3
2022-10-06T11:28:54.634Z,25.4
2022-10-06T11:29:57.060Z,25.2
2022-10-06T11:30:59.641Z,25.3
2022-10-06T11:32:01.272Z,25
2022-10-06T11:33:02.970Z,25
2022-10-06T11:34:04.554Z,25.1
2022-10-06T11:35:06.207Z,25.2
2022-10-06T11:36:07.761Z,25.2
2022-10-06T11:37:09.321Z,25
2022-10-06T11:38:10.861Z,25.3
2022-10-06T11:39:12.423Z,25.2
2022-10-06T11:40:14.073Z,25.3
2022-10-06T11:41:15.627Z,25.4
2022-10-06T11:42:17.320Z,25.3
2022-10-06T11:43:19.090Z,25.1
2022-10-06T11:44:20.658Z,25.5
2022-10-06T11:45:22.195Z,25.6
2022-10-06T11:46:23.979Z,25.5
2022-10-06T11:47:36.265Z,25.2
2022-10-06T11:48:37.983Z,26.7
2022-10-06T11:49:39.596Z,24.5
2022-10-06T11:50:41.241Z,24.4
2022-10-06T11:51:42.866Z,24.4
2022-10-06T11:52:44.413Z,24.4
2022-10-06T11:53:45.961Z,24.5
2022-10-06T11:54:47.503Z,24.2
2022-10-06T11:55:49.087Z,23.9
2022-10-06T11:56:50.685Z,23.9
2022-10-06T11:57:52.258Z,23.1
2022-10-06T11:58:53.794Z,23.2
2022-10-06T11:59:55.336Z,23.2
2022-10-06T12:00:56.888Z,23
2022-10-06T12:01:59.107Z,23.1
2022-10-06T12:03:01.610Z,22.8
2022-10-06T12:04:03.674Z,22.8
2022-10-06T12:05:49.594Z,22.2
2022-10-06T12:06:58.876Z,22.5
2022-10-06T12:08:00.622Z,22.6
2022-10-06T12:09:02.227Z,22.5
2022-10-06T12:10:03.763Z,22.4
2022-10-06T12:11:05.282Z,22.5
2022-10-06T12:12:06.911Z,22.6
2022-10-06T12:13:51.207Z,22.5
2022-10-06T12:17:16.920Z,22.6
2022-10-06T12:18:21.686Z,22.8
2022-10-06T12:19:23.241Z,22.6
2022-10-06T12:20:24.812Z,22.6
2022-10-06T12:21:26.350Z,22.5
2022-10-06T12:22:28.049Z,22.5
2022-10-06T12:23:29.601Z,22.6
2022-10-06T12:24:31.184Z,22.4
2022-10-06T12:25:32.789Z,22.5
2022-10-06T12:26:34.359Z,22.5
2022-10-06T12:27:35.957Z,22.5
2022-10-06T12:28:37.694Z,22.8
2022-10-06T12:29:39.452Z,22.7
2022-10-06T12:30:41.184Z,22.7
2022-10-06T12:31:42.903Z,22.8
2022-10-06T12:32:44.528Z,23.1
2022-10-06T12:33:46.073Z,22.8
2022-10-06T12:34:47.624Z,22.8
2022-10-06T12:35:49.192Z,23
2022-10-06T12:36:50.752Z,22.9
2022-10-06T12:37:55.043Z,22.6
2022-10-06T12:38:56.677Z,22.3
2022-10-06T12:39:58.293Z,22.5
2022-10-06T12:40:59.853Z,22.6
2022-10-06T12:42:01.418Z,22.4
2022-10-06T12:43:03.187Z,22.4
2022-10-06T12:44:04.822Z,22.4
2022-10-06T12:45:06.377Z,22.4
2022-10-06T12:46:08.495Z,22.4
2022-10-06T12:47:10.153Z,22.8
2022-10-06T12:48:11.710Z,22.8
2022-10-06T12:49:16.177Z,22.3
2022-10-06T12:50:17.732Z,22.3
2022-10-06T12:51:19.534Z,22
2022-10-06T12:52:21.275Z,22
2022-10-06T12:53:23.004Z,21.9
2022-10-06T12:54:24.636Z,21.8
2022-10-06T12:55:26.217Z,21.6
2022-10-06T12:56:27.784Z,21.5
2022-10-06T12:57:29.460Z,21.6
2022-10-06T12:58:31.056Z,21.9
2022-10-06T12:59:32.701Z,22
2022-10-06T13:00:34.275Z,22.3
2022-10-06T13:01:36.129Z,22.2
2022-10-06T13:02:38.063Z,22.5
2022-10-06T13:03:39.778Z,22.7
2022-10-06T13:04:41.418Z,22.5
2022-10-06T13:05:43.039Z,22.2
2022-10-06T13:06:44.619Z,22
2022-10-06T13:07:46.178Z,22.5
2022-10-06T13:08:47.856Z,22.6
2022-10-06T13:09:49.400Z,22.4
2022-10-06T13:10:50.972Z,22.4
2022-10-06T13:11:52.536Z,22.6
2022-10-06T13:12:54.115Z,22.3
2022-10-06T13:13:55.727Z,22.2
2022-10-06T13:14:58.005Z,22.4
2022-10-06T13:16:00.818Z,22.6
2022-10-06T13:17:03.850Z,22.8
2022-10-06T13:18:05.594Z,22.4
2022-10-06T13:19:07.164Z,22.4
2022-10-06T13:20:08.709Z,22.7
2022-10-06T13:21:10.296Z,22.6
2022-10-06T13:22:11.890Z,22.5
2022-10-06T13:23:13.436Z,22.2
2022-10-06T13:24:15.053Z,22.1
2022-10-06T13:25:16.646Z,22.3
2022-10-06T13:26:18.210Z,22.1
2022-10-06T13:27:19.764Z,22.5
2022-10-06T13:28:21.667Z,22.1
2022-10-06T13:29:23.477Z,22.4
2022-10-06T13:30:25.027Z,22.6
2022-10-06T13:31:26.571Z,22.4
2022-10-06T13:32:28.256Z,22
2022-10-06T13:33:29.859Z,22.4
2022-10-06T13:34:31.448Z,22.2
2022-10-06T13:35:32.993Z,22.2
2022-10-06T13:36:34.526Z,22.2
2022-10-06T13:37:36.128Z,22.3
2022-10-06T13:38:37.691Z,22.1
2022-10-06T13:39:39.382Z,22.1
2022-10-06T13:40:45.767Z,22.2
2022-10-06T13:41:48.041Z,22
2022-10-06T13:42:49.624Z,22.1
2022-10-06T13:43:51.279Z,22.2
2022-10-06T13:44:52.988Z,22.2
2022-10-06T13:45:54.652Z,22.1
2022-10-06T13:46:56.650Z,22.1
2022-10-06T13:47:58.399Z,22.1
2022-10-06T13:49:00.023Z,22
2022-10-06T13:50:03.260Z,22.1
2022-10-06T13:51:05.781Z,22.1
2022-10-06T13:52:13.498Z,22.2
2022-10-06T13:53:15.244Z,22.2